Bureau, Illinois
Current Conditions -  °F | °C
As of 1:55 PM on Wednesday 17 Dec 2014 (Local Time) from KVYS Reporting Station
Overcast Overcast  
Wind Chill: 16°   Ceiling: 1600
Heat Index: 27°   Visibility: 10mi
Dew Point: 20°   Wind: 14mph
Humidity: 76%   Direction: 310°NW
Pressure: 30.25"   Gusts: NA
Location:  41.29°N, 89.37°W
Report Text: KVYS 171955Z AUTO 31012KT 10SM OVC016 M03/M06 A3025 RMK AO2 T10271064
Loading
Personal Weather Stations






























Interactive Weather Map New forecast layout! Learn more

10-Day Weather Forecast

Advertisements
Track Severe Weather on mobile